sensor_id;sensor_type;location;lat;lon;timestamp;P1;durP1;ratioP1;P2;durP2;ratioP2
54197;SDS011;40105;52.366;17.000;2023-07-20T00:02:11;2.13;;;1.30;;
54197;SDS011;40105;52.366;17.000;2023-07-20T00:04:36;1.27;;;1.07;;
54197;SDS011;40105;52.366;17.000;2023-07-20T00:07:03;3.15;;;1.05;;
54197;SDS011;40105;52.366;17.000;2023-07-20T00:09:28;2.22;;;1.20;;
54197;SDS011;40105;52.366;17.000;2023-07-20T00:11:53;3.47;;;1.93;;
54197;SDS011;40105;52.366;17.000;2023-07-20T00:14:18;3.17;;;1.60;;
54197;SDS011;40105;52.366;17.000;2023-07-20T00:16:47;1.60;;;0.88;;
54197;SDS011;40105;52.366;17.000;2023-07-20T00:19:23;1.55;;;1.10;;
54197;SDS011;40105;52.366;17.000;2023-07-20T00:21:49;3.13;;;1.58;;
54197;SDS011;40105;52.366;17.000;2023-07-20T00:24:14;1.67;;;1.10;;
54197;SDS011;40105;52.366;17.000;2023-07-20T00:26:39;1.13;;;0.90;;
54197;SDS011;40105;52.366;17.000;2023-07-20T00:29:04;2.43;;;1.37;;
54197;SDS011;40105;52.366;17.000;2023-07-20T00:31:30;2.20;;;1.20;;
54197;SDS011;40105;52.366;17.000;2023-07-20T00:33:55;1.87;;;1.37;;
54197;SDS011;40105;52.366;17.000;2023-07-20T00:36:20;2.77;;;1.57;;
54197;SDS011;40105;52.366;17.000;2023-07-20T00:38:45;3.40;;;1.17;;
54197;SDS011;40105;52.366;17.000;2023-07-20T00:41:11;6.00;;;2.07;;
54197;SDS011;40105;52.366;17.000;2023-07-20T00:43:36;2.10;;;1.47;;
54197;SDS011;40105;52.366;17.000;2023-07-20T00:46:01;4.73;;;1.70;;
54197;SDS011;40105;52.366;17.000;2023-07-20T00:48:27;3.30;;;1.38;;
54197;SDS011;40105;52.366;17.000;2023-07-20T00:50:53;1.87;;;1.50;;
54197;SDS011;40105;52.366;17.000;2023-07-20T00:53:18;2.57;;;1.87;;
54197;SDS011;40105;52.366;17.000;2023-07-20T00:55:44;2.90;;;1.80;;
54197;SDS011;40105;52.366;17.000;2023-07-20T00:58:09;2.07;;;1.07;;
54197;SDS011;40105;52.366;17.000;2023-07-20T01:00:34;2.87;;;1.33;;
54197;SDS011;40105;52.366;17.000;2023-07-20T01:02:59;2.30;;;1.60;;
54197;SDS011;40105;52.366;17.000;2023-07-20T01:05:26;2.40;;;1.50;;
54197;SDS011;40105;52.366;17.000;2023-07-20T01:07:58;2.13;;;1.35;;
54197;SDS011;40105;52.366;17.000;2023-07-20T01:10:41;4.70;;;2.13;;
54197;SDS011;40105;52.366;17.000;2023-07-20T01:13:09;3.45;;;1.75;;
54197;SDS011;40105;52.366;17.000;2023-07-20T01:15:34;4.00;;;2.25;;
54197;SDS011;40105;52.366;17.000;2023-07-20T01:18:00;8.77;;;2.03;;
54197;SDS011;40105;52.366;17.000;2023-07-20T01:20:26;3.95;;;1.95;;
54197;SDS011;40105;52.366;17.000;2023-07-20T01:33:14;3.72;;;2.50;;
54197;SDS011;40105;52.366;17.000;2023-07-20T01:35:41;1.85;;;1.58;;
54197;SDS011;40105;52.366;17.000;2023-07-20T01:38:06;3.67;;;1.50;;
54197;SDS011;40105;52.366;17.000;2023-07-20T01:40:32;3.40;;;2.10;;
54197;SDS011;40105;52.366;17.000;2023-07-20T01:42:57;3.70;;;2.37;;
54197;SDS011;40105;52.366;17.000;2023-07-20T01:45:22;4.03;;;1.65;;
54197;SDS011;40105;52.366;17.000;2023-07-20T01:47:48;2.20;;;1.47;;
54197;SDS011;40105;52.366;17.000;2023-07-20T01:50:13;4.30;;;2.07;;
54197;SDS011;40105;52.366;17.000;2023-07-20T01:52:38;5.60;;;1.90;;
54197;SDS011;40105;52.366;17.000;2023-07-20T01:55:03;2.33;;;1.20;;
54197;SDS011;40105;52.366;17.000;2023-07-20T01:57:29;3.25;;;1.70;;
54197;SDS011;40105;52.366;17.000;2023-07-20T01:59:54;3.67;;;1.33;;
54197;SDS011;40105;52.366;17.000;2023-07-20T02:02:19;1.80;;;1.23;;
54197;SDS011;40105;52.366;17.000;2023-07-20T02:04:45;2.53;;;1.85;;
54197;SDS011;40105;52.366;17.000;2023-07-20T02:07:10;4.10;;;2.10;;
54197;SDS011;40105;52.366;17.000;2023-07-20T02:09:36;1.93;;;1.30;;
54197;SDS011;40105;52.366;17.000;2023-07-20T02:12:01;5.20;;;2.07;;
54197;SDS011;40105;52.366;17.000;2023-07-20T02:14:26;4.30;;;2.20;;
54197;SDS011;40105;52.366;17.000;2023-07-20T02:16:51;3.00;;;1.83;;
54197;SDS011;40105;52.366;17.000;2023-07-20T02:19:17;2.65;;;1.98;;
54197;SDS011;40105;52.366;17.000;2023-07-20T02:21:42;3.00;;;1.52;;
54197;SDS011;40105;52.366;17.000;2023-07-20T02:24:07;1.97;;;1.40;;
54197;SDS011;40105;52.366;17.000;2023-07-20T02:26:32;4.57;;;1.67;;
54197;SDS011;40105;52.366;17.000;2023-07-20T02:28:57;3.17;;;1.97;;
54197;SDS011;40105;52.366;17.000;2023-07-20T02:31:23;3.20;;;1.97;;
54197;SDS011;40105;52.366;17.000;2023-07-20T02:33:48;3.08;;;1.60;;
54197;SDS011;40105;52.366;17.000;2023-07-20T02:36:13;4.60;;;2.03;;
54197;SDS011;40105;52.366;17.000;2023-07-20T02:38:38;1.93;;;1.23;;
54197;SDS011;40105;52.366;17.000;2023-07-20T02:41:03;2.07;;;1.30;;
54197;SDS011;40105;52.366;17.000;2023-07-20T02:43:28;2.10;;;1.33;;
54197;SDS011;40105;52.366;17.000;2023-07-20T02:45:54;3.10;;;1.92;;
54197;SDS011;40105;52.366;17.000;2023-07-20T02:48:19;4.90;;;1.87;;
54197;SDS011;40105;52.366;17.000;2023-07-20T02:50:44;3.83;;;1.83;;
54197;SDS011;40105;52.366;17.000;2023-07-20T02:53:10;2.33;;;1.53;;
54197;SDS011;40105;52.366;17.000;2023-07-20T02:55:35;2.85;;;1.92;;
54197;SDS011;40105;52.366;17.000;2023-07-20T02:58:00;3.03;;;2.10;;
54197;SDS011;40105;52.366;17.000;2023-07-20T03:00:26;2.97;;;1.97;;
54197;SDS011;40105;52.366;17.000;2023-07-20T03:02:51;1.87;;;1.10;;
54197;SDS011;40105;52.366;17.000;2023-07-20T03:05:20;2.90;;;1.88;;
54197;SDS011;40105;52.366;17.000;2023-07-20T03:07:45;3.20;;;1.90;;
54197;SDS011;40105;52.366;17.000;2023-07-20T03:10:10;4.17;;;2.07;;
54197;SDS011;40105;52.366;17.000;2023-07-20T03:12:36;3.28;;;2.00;;
54197;SDS011;40105;52.366;17.000;2023-07-20T03:15:02;3.17;;;1.67;;
54197;SDS011;40105;52.366;17.000;2023-07-20T03:17:27;2.65;;;1.73;;
54197;SDS011;40105;52.366;17.000;2023-07-20T03:19:52;2.72;;;1.92;;
54197;SDS011;40105;52.366;17.000;2023-07-20T03:22:17;2.40;;;1.60;;
54197;SDS011;40105;52.366;17.000;2023-07-20T03:24:43;2.90;;;1.73;;
54197;SDS011;40105;52.366;17.000;2023-07-20T03:27:08;2.30;;;1.50;;
54197;SDS011;40105;52.366;17.000;2023-07-20T03:29:33;2.37;;;1.60;;
54197;SDS011;40105;52.366;17.000;2023-07-20T03:31:58;2.63;;;1.30;;
54197;SDS011;40105;52.366;17.000;2023-07-20T03:34:24;2.50;;;1.48;;
54197;SDS011;40105;52.366;17.000;2023-07-20T03:36:49;14.83;;;1.77;;
54197;SDS011;40105;52.366;17.000;2023-07-20T03:39:14;2.13;;;1.43;;
54197;SDS011;40105;52.366;17.000;2023-07-20T03:41:40;3.63;;;1.50;;
54197;SDS011;40105;52.366;17.000;2023-07-20T03:44:05;3.63;;;2.07;;
54197;SDS011;40105;52.366;17.000;2023-07-20T03:46:30;2.22;;;1.77;;
54197;SDS011;40105;52.366;17.000;2023-07-20T03:48:56;3.50;;;1.80;;
54197;SDS011;40105;52.366;17.000;2023-07-20T03:51:21;2.50;;;1.83;;
54197;SDS011;40105;52.366;17.000;2023-07-20T03:53:46;1.93;;;1.27;;
54197;SDS011;40105;52.366;17.000;2023-07-20T03:56:11;2.20;;;1.50;;
54197;SDS011;40105;52.366;17.000;2023-07-20T03:58:36;3.70;;;2.10;;
54197;SDS011;40105;52.366;17.000;2023-07-20T04:01:01;4.00;;;2.00;;
54197;SDS011;40105;52.366;17.000;2023-07-20T04:03:27;2.90;;;2.30;;
54197;SDS011;40105;52.366;17.000;2023-07-20T04:05:53;4.73;;;2.60;;
54197;SDS011;40105;52.366;17.000;2023-07-20T04:08:18;2.58;;;1.95;;
54197;SDS011;40105;52.366;17.000;2023-07-20T04:10:43;4.73;;;1.90;;
54197;SDS011;40105;52.366;17.000;2023-07-20T04:13:09;3.47;;;2.17;;
54197;SDS011;40105;52.366;17.000;2023-07-20T04:15:34;3.57;;;2.30;;
54197;SDS011;40105;52.366;17.000;2023-07-20T04:17:59;6.93;;;2.03;;
54197;SDS011;40105;52.366;17.000;2023-07-20T04:20:25;6.78;;;2.38;;
54197;SDS011;40105;52.366;17.000;2023-07-20T04:22:51;4.27;;;2.07;;
54197;SDS011;40105;52.366;17.000;2023-07-20T04:25:17;3.33;;;2.27;;
54197;SDS011;40105;52.366;17.000;2023-07-20T04:27:42;3.72;;;2.15;;
54197;SDS011;40105;52.366;17.000;2023-07-20T04:30:08;5.23;;;2.10;;
54197;SDS011;40105;52.366;17.000;2023-07-20T04:32:33;2.08;;;1.75;;
54197;SDS011;40105;52.366;17.000;2023-07-20T04:34:59;2.77;;;1.97;;
54197;SDS011;40105;52.366;17.000;2023-07-20T04:37:24;1.97;;;1.73;;
54197;SDS011;40105;52.366;17.000;2023-07-20T04:39:49;4.93;;;1.77;;
54197;SDS011;40105;52.366;17.000;2023-07-20T04:42:14;3.57;;;2.30;;
54197;SDS011;40105;52.366;17.000;2023-07-20T04:44:40;3.35;;;1.83;;
54197;SDS011;40105;52.366;17.000;2023-07-20T04:47:05;2.70;;;1.80;;
54197;SDS011;40105;52.366;17.000;2023-07-20T04:49:30;3.17;;;1.93;;
54197;SDS011;40105;52.366;17.000;2023-07-20T04:51:56;4.07;;;2.77;;
54197;SDS011;40105;52.366;17.000;2023-07-20T04:54:21;4.00;;;2.40;;
54197;SDS011;40105;52.366;17.000;2023-07-20T04:56:46;1.73;;;1.58;;
54197;SDS011;40105;52.366;17.000;2023-07-20T04:59:11;3.97;;;1.97;;
54197;SDS011;40105;52.366;17.000;2023-07-20T05:01:37;4.33;;;2.40;;
54197;SDS011;40105;52.366;17.000;2023-07-20T05:04:02;1.90;;;1.50;;
54197;SDS011;40105;52.366;17.000;2023-07-20T05:06:27;3.93;;;2.03;;
54197;SDS011;40105;52.366;17.000;2023-07-20T05:08:52;3.80;;;2.73;;
54197;SDS011;40105;52.366;17.000;2023-07-20T05:11:17;4.00;;;2.67;;
54197;SDS011;40105;52.366;17.000;2023-07-20T05:13:43;3.73;;;2.37;;
54197;SDS011;40105;52.366;17.000;2023-07-20T05:16:08;5.03;;;2.40;;
54197;SDS011;40105;52.366;17.000;2023-07-20T05:18:33;3.03;;;2.07;;
54197;SDS011;40105;52.366;17.000;2023-07-20T05:20:58;8.57;;;3.40;;
54197;SDS011;40105;52.366;17.000;2023-07-20T05:23:23;5.70;;;3.10;;
54197;SDS011;40105;52.366;17.000;2023-07-20T05:25:58;4.75;;;2.95;;
54197;SDS011;40105;52.366;17.000;2023-07-20T05:28:24;5.28;;;3.15;;
54197;SDS011;40105;52.366;17.000;2023-07-20T05:30:50;6.15;;;3.33;;
54197;SDS011;40105;52.366;17.000;2023-07-20T05:33:16;3.47;;;2.20;;
54197;SDS011;40105;52.366;17.000;2023-07-20T05:35:41;4.17;;;2.50;;
54197;SDS011;40105;52.366;17.000;2023-07-20T05:38:06;4.33;;;2.70;;
54197;SDS011;40105;52.366;17.000;2023-07-20T05:40:32;3.97;;;2.37;;
54197;SDS011;40105;52.366;17.000;2023-07-20T05:42:57;4.13;;;2.67;;
54197;SDS011;40105;52.366;17.000;2023-07-20T05:45:22;7.63;;;3.33;;
54197;SDS011;40105;52.366;17.000;2023-07-20T05:47:47;1.93;;;1.43;;
54197;SDS011;40105;52.366;17.000;2023-07-20T05:50:13;6.60;;;2.90;;
54197;SDS011;40105;52.366;17.000;2023-07-20T05:52:39;4.70;;;2.60;;
54197;SDS011;40105;52.366;17.000;2023-07-20T05:55:04;9.35;;;3.97;;
54197;SDS011;40105;52.366;17.000;2023-07-20T05:57:30;2.97;;;2.17;;
54197;SDS011;40105;52.366;17.000;2023-07-20T05:59:55;3.60;;;2.47;;
54197;SDS011;40105;52.366;17.000;2023-07-20T06:02:20;4.47;;;2.60;;
54197;SDS011;40105;52.366;17.000;2023-07-20T06:04:45;11.90;;;3.33;;
54197;SDS011;40105;52.366;17.000;2023-07-20T06:07:10;7.87;;;3.37;;
54197;SDS011;40105;52.366;17.000;2023-07-20T06:09:36;3.35;;;2.20;;
54197;SDS011;40105;52.366;17.000;2023-07-20T06:12:01;5.97;;;2.80;;
54197;SDS011;40105;52.366;17.000;2023-07-20T06:14:26;4.18;;;2.75;;
54197;SDS011;40105;52.366;17.000;2023-07-20T06:16:52;14.20;;;2.63;;
54197;SDS011;40105;52.366;17.000;2023-07-20T06:19:17;3.90;;;2.33;;
54197;SDS011;40105;52.366;17.000;2023-07-20T06:21:42;4.33;;;2.43;;
54197;SDS011;40105;52.366;17.000;2023-07-20T06:24:08;4.72;;;2.65;;
54197;SDS011;40105;52.366;17.000;2023-07-20T06:26:33;6.90;;;3.27;;
54197;SDS011;40105;52.366;17.000;2023-07-20T06:29:04;6.25;;;2.83;;
54197;SDS011;40105;52.366;17.000;2023-07-20T06:31:29;5.93;;;3.05;;
54197;SDS011;40105;52.366;17.000;2023-07-20T06:33:54;8.88;;;2.47;;
54197;SDS011;40105;52.366;17.000;2023-07-20T06:36:19;5.63;;;2.97;;
54197;SDS011;40105;52.366;17.000;2023-07-20T06:38:44;4.63;;;3.40;;
54197;SDS011;40105;52.366;17.000;2023-07-20T06:41:09;5.13;;;2.57;;
54197;SDS011;40105;52.366;17.000;2023-07-20T06:43:35;5.00;;;2.50;;
54197;SDS011;40105;52.366;17.000;2023-07-20T06:46:00;5.17;;;2.13;;
54197;SDS011;40105;52.366;17.000;2023-07-20T06:48:25;2.30;;;1.73;;
54197;SDS011;40105;52.366;17.000;2023-07-20T06:50:50;7.30;;;2.23;;
54197;SDS011;40105;52.366;17.000;2023-07-20T06:53:15;2.77;;;1.70;;
54197;SDS011;40105;52.366;17.000;2023-07-20T06:55:42;2.70;;;1.35;;
54197;SDS011;40105;52.366;17.000;2023-07-20T06:58:08;2.07;;;1.43;;
54197;SDS011;40105;52.366;17.000;2023-07-20T07:00:33;4.40;;;1.73;;
54197;SDS011;40105;52.366;17.000;2023-07-20T07:02:58;6.80;;;2.07;;
54197;SDS011;40105;52.366;17.000;2023-07-20T07:05:23;2.40;;;1.60;;
54197;SDS011;40105;52.366;17.000;2023-07-20T07:07:48;1.17;;;0.97;;
54197;SDS011;40105;52.366;17.000;2023-07-20T07:10:14;4.00;;;1.70;;
54197;SDS011;40105;52.366;17.000;2023-07-20T07:12:39;3.53;;;1.73;;
54197;SDS011;40105;52.366;17.000;2023-07-20T07:15:04;5.60;;;1.47;;
54197;SDS011;40105;52.366;17.000;2023-07-20T07:17:31;1.45;;;1.00;;
54197;SDS011;40105;52.366;17.000;2023-07-20T07:19:57;1.15;;;0.85;;
54197;SDS011;40105;52.366;17.000;2023-07-20T07:22:22;4.37;;;1.90;;
54197;SDS011;40105;52.366;17.000;2023-07-20T07:24:48;2.27;;;1.50;;
54197;SDS011;40105;52.366;17.000;2023-07-20T07:27:13;2.97;;;1.30;;
54197;SDS011;40105;52.366;17.000;2023-07-20T07:29:41;1.40;;;0.93;;
54197;SDS011;40105;52.366;17.000;2023-07-20T07:32:06;1.10;;;0.93;;
54197;SDS011;40105;52.366;17.000;2023-07-20T07:34:31;2.17;;;1.15;;
54197;SDS011;40105;52.366;17.000;2023-07-20T07:36:59;1.52;;;1.02;;
54197;SDS011;40105;52.366;17.000;2023-07-20T07:39:24;1.17;;;1.03;;
54197;SDS011;40105;52.366;17.000;2023-07-20T07:41:49;3.40;;;1.53;;
54197;SDS011;40105;52.366;17.000;2023-07-20T07:44:15;2.47;;;1.20;;
54197;SDS011;40105;52.366;17.000;2023-07-20T07:46:40;1.73;;;0.90;;
54197;SDS011;40105;52.366;17.000;2023-07-20T07:49:06;2.08;;;1.42;;
54197;SDS011;40105;52.366;17.000;2023-07-20T07:51:31;2.40;;;0.93;;
54197;SDS011;40105;52.366;17.000;2023-07-20T07:53:57;3.00;;;1.17;;
54197;SDS011;40105;52.366;17.000;2023-07-20T07:56:22;5.60;;;0.87;;
54197;SDS011;40105;52.366;17.000;2023-07-20T07:58:48;2.92;;;1.20;;
54197;SDS011;40105;52.366;17.000;2023-07-20T08:01:13;1.60;;;1.17;;
54197;SDS011;40105;52.366;17.000;2023-07-20T08:03:38;2.10;;;1.10;;
54197;SDS011;40105;52.366;17.000;2023-07-20T08:06:04;1.37;;;0.87;;
54197;SDS011;40105;52.366;17.000;2023-07-20T08:08:29;2.28;;;1.00;;
54197;SDS011;40105;52.366;17.000;2023-07-20T08:10:54;7.10;;;0.80;;
54197;SDS011;40105;52.366;17.000;2023-07-20T08:13:20;1.08;;;0.80;;
54197;SDS011;40105;52.366;17.000;2023-07-20T08:15:45;4.67;;;1.07;;
54197;SDS011;40105;52.366;17.000;2023-07-20T08:18:10;1.45;;;0.70;;
54197;SDS011;40105;52.366;17.000;2023-07-20T08:20:36;5.43;;;1.20;;
54197;SDS011;40105;52.366;17.000;2023-07-20T08:23:01;2.27;;;1.30;;
54197;SDS011;40105;52.366;17.000;2023-07-20T08:25:26;1.40;;;1.00;;
54197;SDS011;40105;52.366;17.000;2023-07-20T08:27:51;2.63;;;1.30;;
54197;SDS011;40105;52.366;17.000;2023-07-20T08:30:16;2.30;;;0.80;;
54197;SDS011;40105;52.366;17.000;2023-07-20T08:32:42;2.50;;;1.05;;
54197;SDS011;40105;52.366;17.000;2023-07-20T08:35:07;1.50;;;0.73;;
54197;SDS011;40105;52.366;17.000;2023-07-20T08:37:32;2.05;;;1.17;;
54197;SDS011;40105;52.366;17.000;2023-07-20T08:39:58;1.27;;;0.93;;
54197;SDS011;40105;52.366;17.000;2023-07-20T08:42:23;0.87;;;0.70;;
54197;SDS011;40105;52.366;17.000;2023-07-20T08:44:48;1.30;;;0.93;;
54197;SDS011;40105;52.366;17.000;2023-07-20T08:47:14;2.25;;;1.25;;
54197;SDS011;40105;52.366;17.000;2023-07-20T08:49:40;2.53;;;1.60;;
54197;SDS011;40105;52.366;17.000;2023-07-20T08:52:06;1.80;;;1.05;;
54197;SDS011;40105;52.366;17.000;2023-07-20T08:54:31;1.42;;;1.10;;
54197;SDS011;40105;52.366;17.000;2023-07-20T08:56:58;4.30;;;1.38;;
54197;SDS011;40105;52.366;17.000;2023-07-20T08:59:25;8.02;;;2.08;;
54197;SDS011;40105;52.366;17.000;2023-07-20T09:01:51;2.28;;;1.38;;
54197;SDS011;40105;52.366;17.000;2023-07-20T09:04:19;2.30;;;1.30;;
54197;SDS011;40105;52.366;17.000;2023-07-20T09:06:44;3.73;;;1.93;;
54197;SDS011;40105;52.366;17.000;2023-07-20T09:09:09;6.90;;;1.10;;
54197;SDS011;40105;52.366;17.000;2023-07-20T09:11:34;2.70;;;0.90;;
54197;SDS011;40105;52.366;17.000;2023-07-20T09:14:06;1.53;;;1.20;;
54197;SDS011;40105;52.366;17.000;2023-07-20T09:16:31;1.60;;;1.08;;
54197;SDS011;40105;52.366;17.000;2023-07-20T09:19:00;3.08;;;1.58;;
54197;SDS011;40105;52.366;17.000;2023-07-20T09:21:28;2.90;;;1.65;;
54197;SDS011;40105;52.366;17.000;2023-07-20T09:23:54;3.47;;;2.17;;
54197;SDS011;40105;52.366;17.000;2023-07-20T09:26:21;4.28;;;2.95;;
54197;SDS011;40105;52.366;17.000;2023-07-20T09:28:50;2.00;;;1.27;;
54197;SDS011;40105;52.366;17.000;2023-07-20T09:31:16;0.70;;;0.50;;
54197;SDS011;40105;52.366;17.000;2023-07-20T09:33:42;1.27;;;0.98;;
54197;SDS011;40105;52.366;17.000;2023-07-20T09:36:09;0.70;;;0.67;;
54197;SDS011;40105;52.366;17.000;2023-07-20T09:38:34;0.90;;;0.60;;
54197;SDS011;40105;52.366;17.000;2023-07-20T09:41:00;1.55;;;0.73;;
54197;SDS011;40105;52.366;17.000;2023-07-20T09:43:28;0.50;;;0.47;;
54197;SDS011;40105;52.366;17.000;2023-07-20T09:45:53;0.63;;;0.47;;
54197;SDS011;40105;52.366;17.000;2023-07-20T09:48:23;1.52;;;0.75;;
54197;SDS011;40105;52.366;17.000;2023-07-20T09:50:49;0.30;;;0.28;;
54197;SDS011;40105;52.366;17.000;2023-07-20T09:53:14;0.80;;;0.60;;
54197;SDS011;40105;52.366;17.000;2023-07-20T09:55:40;0.43;;;0.40;;
54197;SDS011;40105;52.366;17.000;2023-07-20T09:58:06;0.28;;;0.28;;
54197;SDS011;40105;52.366;17.000;2023-07-20T10:00:34;1.45;;;0.50;;
54197;SDS011;40105;52.366;17.000;2023-07-20T10:03:00;1.05;;;0.75;;
54197;SDS011;40105;52.366;17.000;2023-07-20T10:05:27;3.67;;;1.17;;
54197;SDS011;40105;52.366;17.000;2023-07-20T10:07:57;1.40;;;0.82;;
54197;SDS011;40105;52.366;17.000;2023-07-20T10:10:23;1.58;;;0.90;;
54197;SDS011;40105;52.366;17.000;2023-07-20T10:12:48;1.87;;;0.97;;
54197;SDS011;40105;52.366;17.000;2023-07-20T10:15:36;1.17;;;0.80;;
54197;SDS011;40105;52.366;17.000;2023-07-20T10:18:02;1.10;;;0.70;;
54197;SDS011;40105;52.366;17.000;2023-07-20T10:20:27;1.52;;;0.75;;
54197;SDS011;40105;52.366;17.000;2023-07-20T10:22:53;1.85;;;0.77;;
54197;SDS011;40105;52.366;17.000;2023-07-20T10:25:18;3.15;;;0.70;;
54197;SDS011;40105;52.366;17.000;2023-07-20T10:27:45;0.88;;;0.70;;
54197;SDS011;40105;52.366;17.000;2023-07-20T10:30:10;1.70;;;0.70;;
54197;SDS011;40105;52.366;17.000;2023-07-20T10:32:36;1.33;;;0.80;;
54197;SDS011;40105;52.366;17.000;2023-07-20T10:35:01;2.38;;;1.23;;
54197;SDS011;40105;52.366;17.000;2023-07-20T10:42:56;1.05;;;0.90;;
54197;SDS011;40105;52.366;17.000;2023-07-20T10:45:21;1.10;;;0.90;;
54197;SDS011;40105;52.366;17.000;2023-07-20T10:47:57;2.08;;;0.90;;
54197;SDS011;40105;52.366;17.000;2023-07-20T10:50:22;1.73;;;1.20;;
54197;SDS011;40105;52.366;17.000;2023-07-20T10:53:03;5.43;;;1.67;;
54197;SDS011;40105;52.366;17.000;2023-07-20T10:55:29;2.05;;;0.77;;
54197;SDS011;40105;52.366;17.000;2023-07-20T10:58:10;2.43;;;1.10;;
54197;SDS011;40105;52.366;17.000;2023-07-20T11:00:36;1.85;;;1.30;;
54197;SDS011;40105;52.366;17.000;2023-07-20T11:03:02;1.75;;;0.95;;
54197;SDS011;40105;52.366;17.000;2023-07-20T11:05:34;1.50;;;0.90;;
54197;SDS011;40105;52.366;17.000;2023-07-20T11:08:00;1.23;;;0.85;;
54197;SDS011;40105;52.366;17.000;2023-07-20T11:10:25;2.17;;;0.97;;
54197;SDS011;40105;52.366;17.000;2023-07-20T11:18:35;2.28;;;1.13;;
54197;SDS011;40105;52.366;17.000;2023-07-20T11:21:06;1.20;;;0.70;;
54197;SDS011;40105;52.366;17.000;2023-07-20T11:23:32;1.95;;;0.80;;
54197;SDS011;40105;52.366;17.000;2023-07-20T11:25:57;2.70;;;1.40;;
54197;SDS011;40105;52.366;17.000;2023-07-20T11:28:24;2.40;;;1.10;;
54197;SDS011;40105;52.366;17.000;2023-07-20T11:30:52;1.07;;;0.97;;
54197;SDS011;40105;52.366;17.000;2023-07-20T11:33:18;2.33;;;1.15;;
54197;SDS011;40105;52.366;17.000;2023-07-20T11:35:44;2.33;;;1.30;;
54197;SDS011;40105;52.366;17.000;2023-07-20T11:38:09;1.27;;;0.88;;
54197;SDS011;40105;52.366;17.000;2023-07-20T11:40:34;1.70;;;0.90;;
54197;SDS011;40105;52.366;17.000;2023-07-20T11:43:00;0.93;;;0.83;;
54197;SDS011;40105;52.366;17.000;2023-07-20T11:45:25;1.97;;;0.83;;
54197;SDS011;40105;52.366;17.000;2023-07-20T11:47:50;2.40;;;1.30;;
54197;SDS011;40105;52.366;17.000;2023-07-20T11:50:15;2.60;;;1.13;;
54197;SDS011;40105;52.366;17.000;2023-07-20T11:52:41;0.87;;;0.70;;
54197;SDS011;40105;52.366;17.000;2023-07-20T11:55:07;1.43;;;0.80;;
54197;SDS011;40105;52.366;17.000;2023-07-20T11:57:32;0.75;;;0.65;;
54197;SDS011;40105;52.366;17.000;2023-07-20T11:59:58;1.47;;;0.87;;
54197;SDS011;40105;52.366;17.000;2023-07-20T12:02:28;1.90;;;0.70;;
54197;SDS011;40105;52.366;17.000;2023-07-20T12:04:54;0.55;;;0.50;;
54197;SDS011;40105;52.366;17.000;2023-07-20T12:07:19;0.88;;;0.70;;
54197;SDS011;40105;52.366;17.000;2023-07-20T12:09:45;0.70;;;0.67;;
54197;SDS011;40105;52.366;17.000;2023-07-20T12:12:10;1.27;;;0.63;;
54197;SDS011;40105;52.366;17.000;2023-07-20T12:14:38;1.67;;;0.57;;
54197;SDS011;40105;52.366;17.000;2023-07-20T12:17:04;0.33;;;0.33;;
54197;SDS011;40105;52.366;17.000;2023-07-20T12:19:29;1.97;;;0.53;;
54197;SDS011;40105;52.366;17.000;2023-07-20T12:21:57;0.60;;;0.43;;
54197;SDS011;40105;52.366;17.000;2023-07-20T12:24:24;0.43;;;0.40;;
54197;SDS011;40105;52.366;17.000;2023-07-20T12:26:49;0.30;;;0.30;;
54197;SDS011;40105;52.366;17.000;2023-07-20T12:29:20;0.98;;;0.60;;
54197;SDS011;40105;52.366;17.000;2023-07-20T12:31:46;0.60;;;0.40;;
54197;SDS011;40105;52.366;17.000;2023-07-20T12:34:12;0.75;;;0.40;;
54197;SDS011;40105;52.366;17.000;2023-07-20T12:36:37;0.90;;;0.50;;
54197;SDS011;40105;52.366;17.000;2023-07-20T12:39:02;0.37;;;0.33;;
54197;SDS011;40105;52.366;17.000;2023-07-20T12:41:28;0.57;;;0.55;;
54197;SDS011;40105;52.366;17.000;2023-07-20T12:43:53;0.90;;;0.50;;
54197;SDS011;40105;52.366;17.000;2023-07-20T12:46:22;1.17;;;0.60;;
54197;SDS011;40105;52.366;17.000;2023-07-20T12:48:47;3.80;;;0.63;;
54197;SDS011;40105;52.366;17.000;2023-07-20T12:51:13;1.87;;;0.30;;
54197;SDS011;40105;52.366;17.000;2023-07-20T12:53:38;0.53;;;0.47;;
54197;SDS011;40105;52.366;17.000;2023-07-20T12:56:03;0.60;;;0.50;;
54197;SDS011;40105;52.366;17.000;2023-07-20T12:58:29;1.83;;;0.57;;
54197;SDS011;40105;52.366;17.000;2023-07-20T13:00:54;1.33;;;0.77;;
54197;SDS011;40105;52.366;17.000;2023-07-20T13:03:19;0.90;;;0.67;;
54197;SDS011;40105;52.366;17.000;2023-07-20T13:05:47;1.33;;;0.57;;
54197;SDS011;40105;52.366;17.000;2023-07-20T13:08:13;0.30;;;0.30;;
54197;SDS011;40105;52.366;17.000;2023-07-20T13:10:38;0.40;;;0.40;;
54197;SDS011;40105;52.366;17.000;2023-07-20T13:13:04;0.57;;;0.57;;
54197;SDS011;40105;52.366;17.000;2023-07-20T13:15:30;0.82;;;0.50;;
54197;SDS011;40105;52.366;17.000;2023-07-20T13:17:56;0.70;;;0.55;;
54197;SDS011;40105;52.366;17.000;2023-07-20T13:20:22;0.63;;;0.33;;
54197;SDS011;40105;52.366;17.000;2023-07-20T13:22:47;3.83;;;0.60;;
54197;SDS011;40105;52.366;17.000;2023-07-20T13:25:12;0.70;;;0.50;;
54197;SDS011;40105;52.366;17.000;2023-07-20T13:27:38;0.70;;;0.50;;
54197;SDS011;40105;52.366;17.000;2023-07-20T13:30:03;0.57;;;0.57;;
54197;SDS011;40105;52.366;17.000;2023-07-20T13:32:32;0.70;;;0.50;;
54197;SDS011;40105;52.366;17.000;2023-07-20T13:34:58;0.40;;;0.40;;
54197;SDS011;40105;52.366;17.000;2023-07-20T13:37:23;0.47;;;0.45;;
54197;SDS011;40105;52.366;17.000;2023-07-20T13:39:49;0.30;;;0.30;;
54197;SDS011;40105;52.366;17.000;2023-07-20T13:42:14;2.33;;;0.60;;
54197;SDS011;40105;52.366;17.000;2023-07-20T13:44:39;0.50;;;0.43;;
54197;SDS011;40105;52.366;17.000;2023-07-20T13:47:04;1.10;;;0.60;;
54197;SDS011;40105;52.366;17.000;2023-07-20T13:49:30;0.70;;;0.50;;
54197;SDS011;40105;52.366;17.000;2023-07-20T13:51:55;3.05;;;0.85;;
54197;SDS011;40105;52.366;17.000;2023-07-20T13:54:21;4.53;;;0.70;;
54197;SDS011;40105;52.366;17.000;2023-07-20T13:56:46;0.30;;;0.30;;
54197;SDS011;40105;52.366;17.000;2023-07-20T13:59:11;0.30;;;0.30;;
54197;SDS011;40105;52.366;17.000;2023-07-20T14:01:36;0.77;;;0.67;;
54197;SDS011;40105;52.366;17.000;2023-07-20T14:04:02;0.67;;;0.53;;
54197;SDS011;40105;52.366;17.000;2023-07-20T14:06:30;0.57;;;0.50;;
54197;SDS011;40105;52.366;17.000;2023-07-20T14:08:56;1.80;;;0.57;;
54197;SDS011;40105;52.366;17.000;2023-07-20T14:11:21;1.85;;;0.70;;
54197;SDS011;40105;52.366;17.000;2023-07-20T14:13:47;0.32;;;0.32;;
54197;SDS011;40105;52.366;17.000;2023-07-20T14:16:12;0.77;;;0.50;;
54197;SDS011;40105;52.366;17.000;2023-07-20T14:18:37;0.37;;;0.37;;
54197;SDS011;40105;52.366;17.000;2023-07-20T14:21:02;0.93;;;0.70;;
54197;SDS011;40105;52.366;17.000;2023-07-20T14:23:32;0.52;;;0.52;;
54197;SDS011;40105;52.366;17.000;2023-07-20T14:25:57;0.68;;;0.60;;
54197;SDS011;40105;52.366;17.000;2023-07-20T14:28:22;2.47;;;0.60;;
54197;SDS011;40105;52.366;17.000;2023-07-20T14:30:48;0.83;;;0.50;;
54197;SDS011;40105;52.366;17.000;2023-07-20T14:33:13;0.70;;;0.50;;
54197;SDS011;40105;52.366;17.000;2023-07-20T14:35:38;0.40;;;0.40;;
54197;SDS011;40105;52.366;17.000;2023-07-20T14:38:03;0.60;;;0.40;;
54197;SDS011;40105;52.366;17.000;2023-07-20T14:40:29;0.30;;;0.30;;
54197;SDS011;40105;52.366;17.000;2023-07-20T14:42:55;0.40;;;0.40;;
54197;SDS011;40105;52.366;17.000;2023-07-20T14:45:20;0.50;;;0.40;;
54197;SDS011;40105;52.366;17.000;2023-07-20T14:47:45;0.70;;;0.53;;